sensor_id;sensor_type;location;lat;lon;timestamp;temperature;humidity
15554;DHT22;7878;44.632;10.942;2024-03-29T00:02:08;11.60;99.90
15554;DHT22;7878;44.632;10.942;2024-03-29T00:04:33;11.60;99.90
15554;DHT22;7878;44.632;10.942;2024-03-29T00:06:59;11.70;99.90
15554;DHT22;7878;44.632;10.942;2024-03-29T00:09:25;11.70;99.90
15554;DHT22;7878;44.632;10.942;2024-03-29T00:11:51;11.60;99.90
15554;DHT22;7878;44.632;10.942;2024-03-29T00:14:16;11.60;99.90
15554;DHT22;7878;44.632;10.942;2024-03-29T00:16:42;11.60;99.90
15554;DHT22;7878;44.632;10.942;2024-03-29T00:19:08;11.50;99.90
15554;DHT22;7878;44.632;10.942;2024-03-29T00:21:33;11.50;99.90
15554;DHT22;7878;44.632;10.942;2024-03-29T00:23:59;11.60;99.90
15554;DHT22;7878;44.632;10.942;2024-03-29T00:26:24;11.60;99.90
15554;DHT22;7878;44.632;10.942;2024-03-29T00:28:50;11.60;99.90
15554;DHT22;7878;44.632;10.942;2024-03-29T00:31:16;11.60;99.90
15554;DHT22;7878;44.632;10.942;2024-03-29T00:33:41;11.50;99.90
15554;DHT22;7878;44.632;10.942;2024-03-29T00:36:07;11.40;99.90
15554;DHT22;7878;44.632;10.942;2024-03-29T00:38:33;11.40;99.90
15554;DHT22;7878;44.632;10.942;2024-03-29T00:40:59;11.40;99.90
15554;DHT22;7878;44.632;10.942;2024-03-29T00:43:25;11.30;99.90
15554;DHT22;7878;44.632;10.942;2024-03-29T00:45:50;11.30;99.90
15554;DHT22;7878;44.632;10.942;2024-03-29T00:48:17;11.40;99.90
15554;DHT22;7878;44.632;10.942;2024-03-29T00:50:45;11.40;99.90
15554;DHT22;7878;44.632;10.942;2024-03-29T00:53:10;11.30;99.90
15554;DHT22;7878;44.632;10.942;2024-03-29T00:55:36;11.30;99.90
15554;DHT22;7878;44.632;10.942;2024-03-29T00:58:02;11.30;99.90
15554;DHT22;7878;44.632;10.942;2024-03-29T01:00:28;11.30;99.90
15554;DHT22;7878;44.632;10.942;2024-03-29T01:02:53;11.40;99.90
15554;DHT22;7878;44.632;10.942;2024-03-29T01:05:28;11.40;99.90
15554;DHT22;7878;44.632;10.942;2024-03-29T01:07:53;11.40;99.90
15554;DHT22;7878;44.632;10.942;2024-03-29T01:10:19;11.30;99.90
15554;DHT22;7878;44.632;10.942;2024-03-29T01:12:47;11.30;99.90
15554;DHT22;7878;44.632;10.942;2024-03-29T01:15:13;11.30;99.90
15554;DHT22;7878;44.632;10.942;2024-03-29T01:17:38;11.30;99.90
15554;DHT22;7878;44.632;10.942;2024-03-29T01:20:04;11.40;99.90
15554;DHT22;7878;44.632;10.942;2024-03-29T01:22:30;11.40;99.90
15554;DHT22;7878;44.632;10.942;2024-03-29T01:24:56;11.40;99.90
15554;DHT22;7878;44.632;10.942;2024-03-29T01:27:23;11.30;99.90
15554;DHT22;7878;44.632;10.942;2024-03-29T01:29:50;11.20;99.90
15554;DHT22;7878;44.632;10.942;2024-03-29T01:32:15;11.30;99.90
15554;DHT22;7878;44.632;10.942;2024-03-29T01:34:41;11.30;99.90
15554;DHT22;7878;44.632;10.942;2024-03-29T01:37:08;11.30;99.90
15554;DHT22;7878;44.632;10.942;2024-03-29T01:39:33;11.30;99.90
15554;DHT22;7878;44.632;10.942;2024-03-29T01:41:59;11.30;99.90
15554;DHT22;7878;44.632;10.942;2024-03-29T01:44:25;11.20;99.90
15554;DHT22;7878;44.632;10.942;2024-03-29T01:46:50;11.30;99.90
15554;DHT22;7878;44.632;10.942;2024-03-29T01:49:16;11.30;99.90
15554;DHT22;7878;44.632;10.942;2024-03-29T01:51:44;11.40;99.90
15554;DHT22;7878;44.632;10.942;2024-03-29T01:54:10;11.40;99.90
15554;DHT22;7878;44.632;10.942;2024-03-29T01:56:38;11.50;99.90
15554;DHT22;7878;44.632;10.942;2024-03-29T01:59:05;11.50;99.90
15554;DHT22;7878;44.632;10.942;2024-03-29T02:01:36;11.40;99.90
15554;DHT22;7878;44.632;10.942;2024-03-29T02:04:03;11.30;99.90
15554;DHT22;7878;44.632;10.942;2024-03-29T02:06:30;11.30;99.90
15554;DHT22;7878;44.632;10.942;2024-03-29T02:08:55;11.30;99.90
15554;DHT22;7878;44.632;10.942;2024-03-29T02:11:21;11.20;99.90
15554;DHT22;7878;44.632;10.942;2024-03-29T02:13:48;11.20;99.90
15554;DHT22;7878;44.632;10.942;2024-03-29T02:16:14;11.30;99.90
15554;DHT22;7878;44.632;10.942;2024-03-29T02:18:40;11.30;99.90
15554;DHT22;7878;44.632;10.942;2024-03-29T02:21:07;11.30;99.90
15554;DHT22;7878;44.632;10.942;2024-03-29T02:23:37;11.30;99.90
15554;DHT22;7878;44.632;10.942;2024-03-29T02:26:03;11.20;99.90
15554;DHT22;7878;44.632;10.942;2024-03-29T02:28:30;11.20;99.90
15554;DHT22;7878;44.632;10.942;2024-03-29T02:30:56;11.20;99.90
15554;DHT22;7878;44.632;10.942;2024-03-29T02:33:22;11.30;99.90
15554;DHT22;7878;44.632;10.942;2024-03-29T02:35:48;11.30;99.90
15554;DHT22;7878;44.632;10.942;2024-03-29T02:38:14;11.30;99.90
15554;DHT22;7878;44.632;10.942;2024-03-29T02:40:40;11.20;99.90
15554;DHT22;7878;44.632;10.942;2024-03-29T02:43:05;11.20;99.90
15554;DHT22;7878;44.632;10.942;2024-03-29T02:45:31;11.20;99.90
15554;DHT22;7878;44.632;10.942;2024-03-29T02:47:57;11.30;99.90
15554;DHT22;7878;44.632;10.942;2024-03-29T02:50:22;11.20;99.90
15554;DHT22;7878;44.632;10.942;2024-03-29T02:52:48;11.20;99.90
15554;DHT22;7878;44.632;10.942;2024-03-29T02:55:14;11.20;99.90
15554;DHT22;7878;44.632;10.942;2024-03-29T02:57:40;11.20;99.90
15554;DHT22;7878;44.632;10.942;2024-03-29T03:00:06;11.10;99.90
15554;DHT22;7878;44.632;10.942;2024-03-29T03:02:36;11.10;99.90
15554;DHT22;7878;44.632;10.942;2024-03-29T03:05:02;11.10;99.90
15554;DHT22;7878;44.632;10.942;2024-03-29T03:07:28;11.10;99.90
15554;DHT22;7878;44.632;10.942;2024-03-29T03:10:12;11.10;99.90
15554;DHT22;7878;44.632;10.942;2024-03-29T03:12:56;11.10;99.90
15554;DHT22;7878;44.632;10.942;2024-03-29T03:15:22;11.10;99.90
15554;DHT22;7878;44.632;10.942;2024-03-29T03:17:47;11.10;99.90
15554;DHT22;7878;44.632;10.942;2024-03-29T03:20:13;11.10;99.90
15554;DHT22;7878;44.632;10.942;2024-03-29T03:22:41;11.10;99.90
15554;DHT22;7878;44.632;10.942;2024-03-29T03:25:07;11.10;99.90
15554;DHT22;7878;44.632;10.942;2024-03-29T03:27:32;11.00;99.90
15554;DHT22;7878;44.632;10.942;2024-03-29T03:29:58;11.10;99.90
15554;DHT22;7878;44.632;10.942;2024-03-29T03:32:24;11.00;99.90
15554;DHT22;7878;44.632;10.942;2024-03-29T03:34:49;11.10;99.90
15554;DHT22;7878;44.632;10.942;2024-03-29T03:37:15;11.10;99.90
15554;DHT22;7878;44.632;10.942;2024-03-29T03:39:41;11.00;99.90
15554;DHT22;7878;44.632;10.942;2024-03-29T03:42:06;11.00;99.90
15554;DHT22;7878;44.632;10.942;2024-03-29T03:44:32;11.00;99.90
15554;DHT22;7878;44.632;10.942;2024-03-29T03:46:58;11.00;99.90
15554;DHT22;7878;44.632;10.942;2024-03-29T03:49:23;10.90;99.90
15554;DHT22;7878;44.632;10.942;2024-03-29T03:51:49;11.00;99.90
15554;DHT22;7878;44.632;10.942;2024-03-29T03:54:15;11.00;99.90
15554;DHT22;7878;44.632;10.942;2024-03-29T03:56:40;11.00;99.90
15554;DHT22;7878;44.632;10.942;2024-03-29T03:59:06;11.00;99.90
15554;DHT22;7878;44.632;10.942;2024-03-29T04:01:33;11.10;99.90
15554;DHT22;7878;44.632;10.942;2024-03-29T04:03:59;11.00;99.90
15554;DHT22;7878;44.632;10.942;2024-03-29T04:06:25;11.00;99.90
15554;DHT22;7878;44.632;10.942;2024-03-29T04:08:50;11.00;99.90
15554;DHT22;7878;44.632;10.942;2024-03-29T04:11:16;11.00;99.90
15554;DHT22;7878;44.632;10.942;2024-03-29T04:13:44;11.00;99.90
15554;DHT22;7878;44.632;10.942;2024-03-29T04:16:10;11.00;99.90
15554;DHT22;7878;44.632;10.942;2024-03-29T04:18:36;11.00;99.90
15554;DHT22;7878;44.632;10.942;2024-03-29T04:21:03;11.10;99.90
15554;DHT22;7878;44.632;10.942;2024-03-29T04:23:29;11.10;99.90
15554;DHT22;7878;44.632;10.942;2024-03-29T04:25:56;11.20;99.90
15554;DHT22;7878;44.632;10.942;2024-03-29T04:28:23;11.10;99.90
15554;DHT22;7878;44.632;10.942;2024-03-29T04:30:55;11.10;99.90
15554;DHT22;7878;44.632;10.942;2024-03-29T04:33:22;11.00;99.90
15554;DHT22;7878;44.632;10.942;2024-03-29T04:36:01;11.00;99.90
15554;DHT22;7878;44.632;10.942;2024-03-29T04:38:28;11.10;99.90
15554;DHT22;7878;44.632;10.942;2024-03-29T04:40:55;11.10;99.90
15554;DHT22;7878;44.632;10.942;2024-03-29T04:43:22;11.10;99.90
15554;DHT22;7878;44.632;10.942;2024-03-29T04:45:48;11.00;99.90
15554;DHT22;7878;44.632;10.942;2024-03-29T04:48:14;11.00;99.90
15554;DHT22;7878;44.632;10.942;2024-03-29T04:50:40;11.00;99.90
15554;DHT22;7878;44.632;10.942;2024-03-29T04:53:07;10.90;99.90
15554;DHT22;7878;44.632;10.942;2024-03-29T04:55:34;10.80;99.90
15554;DHT22;7878;44.632;10.942;2024-03-29T04:58:00;10.80;99.90
15554;DHT22;7878;44.632;10.942;2024-03-29T05:00:26;10.70;99.90
15554;DHT22;7878;44.632;10.942;2024-03-29T05:02:51;10.50;99.90
15554;DHT22;7878;44.632;10.942;2024-03-29T05:05:17;10.60;99.90
15554;DHT22;7878;44.632;10.942;2024-03-29T05:07:43;10.60;99.90
15554;DHT22;7878;44.632;10.942;2024-03-29T05:10:09;10.60;99.90
15554;DHT22;7878;44.632;10.942;2024-03-29T05:12:38;10.60;99.90
15554;DHT22;7878;44.632;10.942;2024-03-29T05:15:04;10.60;99.90
15554;DHT22;7878;44.632;10.942;2024-03-29T05:17:30;10.40;99.90
15554;DHT22;7878;44.632;10.942;2024-03-29T05:19:56;10.50;99.90
15554;DHT22;7878;44.632;10.942;2024-03-29T05:22:22;10.50;99.90
15554;DHT22;7878;44.632;10.942;2024-03-29T05:24:47;10.40;99.90
15554;DHT22;7878;44.632;10.942;2024-03-29T05:27:14;10.20;99.90
15554;DHT22;7878;44.632;10.942;2024-03-29T05:29:39;10.30;99.90
15554;DHT22;7878;44.632;10.942;2024-03-29T05:32:07;10.40;99.90
15554;DHT22;7878;44.632;10.942;2024-03-29T05:34:32;10.30;99.90
15554;DHT22;7878;44.632;10.942;2024-03-29T05:36:58;10.20;99.90
15554;DHT22;7878;44.632;10.942;2024-03-29T05:39:24;10.30;99.90
15554;DHT22;7878;44.632;10.942;2024-03-29T05:41:50;10.40;99.90
15554;DHT22;7878;44.632;10.942;2024-03-29T05:44:16;10.40;99.90
15554;DHT22;7878;44.632;10.942;2024-03-29T05:46:42;10.50;99.90
15554;DHT22;7878;44.632;10.942;2024-03-29T05:49:08;10.40;99.90
15554;DHT22;7878;44.632;10.942;2024-03-29T05:51:34;10.40;99.90
15554;DHT22;7878;44.632;10.942;2024-03-29T05:54:00;10.30;99.90
15554;DHT22;7878;44.632;10.942;2024-03-29T05:56:26;10.30;99.90
15554;DHT22;7878;44.632;10.942;2024-03-29T05:58:51;10.30;99.90
15554;DHT22;7878;44.632;10.942;2024-03-29T06:01:17;10.40;99.90
15554;DHT22;7878;44.632;10.942;2024-03-29T06:03:43;10.40;99.90
15554;DHT22;7878;44.632;10.942;2024-03-29T06:06:08;10.50;99.90
15554;DHT22;7878;44.632;10.942;2024-03-29T06:08:43;10.60;99.90
15554;DHT22;7878;44.632;10.942;2024-03-29T06:11:08;10.60;99.90
15554;DHT22;7878;44.632;10.942;2024-03-29T06:13:34;10.50;99.90
15554;DHT22;7878;44.632;10.942;2024-03-29T06:16:21;10.60;99.90
15554;DHT22;7878;44.632;10.942;2024-03-29T06:19:06;10.70;99.90
15554;DHT22;7878;44.632;10.942;2024-03-29T06:21:31;10.80;99.90
15554;DHT22;7878;44.632;10.942;2024-03-29T06:24:13;10.80;99.90
15554;DHT22;7878;44.632;10.942;2024-03-29T06:26:40;10.90;99.90
15554;DHT22;7878;44.632;10.942;2024-03-29T06:29:07;10.90;99.90
15554;DHT22;7878;44.632;10.942;2024-03-29T06:31:36;10.90;99.90
15554;DHT22;7878;44.632;10.942;2024-03-29T06:34:01;11.00;99.90
15554;DHT22;7878;44.632;10.942;2024-03-29T06:36:27;11.00;99.90
15554;DHT22;7878;44.632;10.942;2024-03-29T06:38:56;11.10;99.90
15554;DHT22;7878;44.632;10.942;2024-03-29T06:41:21;11.30;99.90
15554;DHT22;7878;44.632;10.942;2024-03-29T06:43:47;11.30;99.90
15554;DHT22;7878;44.632;10.942;2024-03-29T06:46:13;11.40;99.90
15554;DHT22;7878;44.632;10.942;2024-03-29T06:48:39;11.30;99.90
15554;DHT22;7878;44.632;10.942;2024-03-29T06:51:05;11.40;99.90
15554;DHT22;7878;44.632;10.942;2024-03-29T06:53:31;11.50;99.90
15554;DHT22;7878;44.632;10.942;2024-03-29T06:55:59;11.40;99.90
15554;DHT22;7878;44.632;10.942;2024-03-29T06:58:25;11.60;99.90
15554;DHT22;7878;44.632;10.942;2024-03-29T07:00:50;11.50;99.90
15554;DHT22;7878;44.632;10.942;2024-03-29T07:03:18;11.50;99.90
15554;DHT22;7878;44.632;10.942;2024-03-29T07:05:45;11.60;99.90
15554;DHT22;7878;44.632;10.942;2024-03-29T07:08:11;11.60;99.90
15554;DHT22;7878;44.632;10.942;2024-03-29T07:10:37;11.70;99.90
15554;DHT22;7878;44.632;10.942;2024-03-29T07:13:02;11.70;99.90
15554;DHT22;7878;44.632;10.942;2024-03-29T07:15:28;11.70;99.90
15554;DHT22;7878;44.632;10.942;2024-03-29T07:17:54;11.80;99.90
15554;DHT22;7878;44.632;10.942;2024-03-29T07:20:19;11.80;99.90
15554;DHT22;7878;44.632;10.942;2024-03-29T07:22:45;11.80;99.90
15554;DHT22;7878;44.632;10.942;2024-03-29T07:25:11;11.90;99.90
15554;DHT22;7878;44.632;10.942;2024-03-29T07:27:37;11.90;99.90
15554;DHT22;7878;44.632;10.942;2024-03-29T07:30:03;11.90;99.90
15554;DHT22;7878;44.632;10.942;2024-03-29T07:32:30;12.00;99.90
15554;DHT22;7878;44.632;10.942;2024-03-29T07:34:56;12.00;99.90
15554;DHT22;7878;44.632;10.942;2024-03-29T07:37:24;11.90;99.90
15554;DHT22;7878;44.632;10.942;2024-03-29T07:39:50;12.00;99.90
15554;DHT22;7878;44.632;10.942;2024-03-29T07:42:16;11.90;99.90
15554;DHT22;7878;44.632;10.942;2024-03-29T07:44:42;12.00;99.90
15554;DHT22;7878;44.632;10.942;2024-03-29T07:47:07;12.00;99.90
15554;DHT22;7878;44.632;10.942;2024-03-29T07:49:34;11.90;99.90
15554;DHT22;7878;44.632;10.942;2024-03-29T07:52:00;12.00;99.90
15554;DHT22;7878;44.632;10.942;2024-03-29T07:54:28;12.00;99.90
15554;DHT22;7878;44.632;10.942;2024-03-29T07:56:53;12.00;99.90
15554;DHT22;7878;44.632;10.942;2024-03-29T07:59:19;12.00;99.90
15554;DHT22;7878;44.632;10.942;2024-03-29T08:01:45;12.10;99.90
15554;DHT22;7878;44.632;10.942;2024-03-29T08:04:11;12.20;99.90
15554;DHT22;7878;44.632;10.942;2024-03-29T08:06:37;12.20;99.90
15554;DHT22;7878;44.632;10.942;2024-03-29T08:09:02;12.20;99.90
15554;DHT22;7878;44.632;10.942;2024-03-29T08:11:28;12.20;99.90
15554;DHT22;7878;44.632;10.942;2024-03-29T08:13:54;12.30;99.90
15554;DHT22;7878;44.632;10.942;2024-03-29T08:16:19;12.20;99.90
15554;DHT22;7878;44.632;10.942;2024-03-29T08:18:46;12.20;99.90
15554;DHT22;7878;44.632;10.942;2024-03-29T08:21:13;12.20;99.90
15554;DHT22;7878;44.632;10.942;2024-03-29T08:23:40;12.40;99.90
15554;DHT22;7878;44.632;10.942;2024-03-29T08:26:06;12.40;99.90
15554;DHT22;7878;44.632;10.942;2024-03-29T08:28:31;12.50;99.90
15554;DHT22;7878;44.632;10.942;2024-03-29T08:31:02;12.70;99.90
15554;DHT22;7878;44.632;10.942;2024-03-29T08:33:28;12.80;99.90
15554;DHT22;7878;44.632;10.942;2024-03-29T08:35:56;12.90;99.90
15554;DHT22;7878;44.632;10.942;2024-03-29T08:38:21;13.00;99.90
15554;DHT22;7878;44.632;10.942;2024-03-29T08:40:47;13.00;99.90
15554;DHT22;7878;44.632;10.942;2024-03-29T08:43:14;12.90;99.90
15554;DHT22;7878;44.632;10.942;2024-03-29T08:45:44;12.90;99.90
15554;DHT22;7878;44.632;10.942;2024-03-29T08:48:10;12.90;99.90
15554;DHT22;7878;44.632;10.942;2024-03-29T08:50:36;12.90;99.90
15554;DHT22;7878;44.632;10.942;2024-03-29T08:53:06;12.90;99.90
15554;DHT22;7878;44.632;10.942;2024-03-29T08:55:32;12.90;99.90
15554;DHT22;7878;44.632;10.942;2024-03-29T08:57:59;13.00;99.90
15554;DHT22;7878;44.632;10.942;2024-03-29T09:00:30;13.00;99.90
15554;DHT22;7878;44.632;10.942;2024-03-29T09:02:56;13.00;99.90
15554;DHT22;7878;44.632;10.942;2024-03-29T09:05:22;13.20;99.90
15554;DHT22;7878;44.632;10.942;2024-03-29T09:07:51;13.30;99.90
15554;DHT22;7878;44.632;10.942;2024-03-29T09:10:17;13.30;99.90
15554;DHT22;7878;44.632;10.942;2024-03-29T09:12:43;13.40;99.90
15554;DHT22;7878;44.632;10.942;2024-03-29T09:15:08;13.50;99.90
15554;DHT22;7878;44.632;10.942;2024-03-29T09:17:39;13.60;99.90
15554;DHT22;7878;44.632;10.942;2024-03-29T09:20:06;13.70;99.90
15554;DHT22;7878;44.632;10.942;2024-03-29T09:22:32;13.80;99.90
15554;DHT22;7878;44.632;10.942;2024-03-29T09:24:57;13.90;99.90
15554;DHT22;7878;44.632;10.942;2024-03-29T09:27:23;14.00;99.90
15554;DHT22;7878;44.632;10.942;2024-03-29T09:29:49;14.10;99.90
15554;DHT22;7878;44.632;10.942;2024-03-29T09:32:15;14.10;99.90
15554;DHT22;7878;44.632;10.942;2024-03-29T09:34:45;14.20;99.90
15554;DHT22;7878;44.632;10.942;2024-03-29T09:37:11;14.30;99.90
15554;DHT22;7878;44.632;10.942;2024-03-29T09:39:36;14.30;99.90
15554;DHT22;7878;44.632;10.942;2024-03-29T09:42:03;14.60;99.90
15554;DHT22;7878;44.632;10.942;2024-03-29T09:44:33;14.90;99.90
15554;DHT22;7878;44.632;10.942;2024-03-29T09:47:04;15.20;99.90
15554;DHT22;7878;44.632;10.942;2024-03-29T09:49:32;15.10;99.90
15554;DHT22;7878;44.632;10.942;2024-03-29T09:52:01;15.00;99.90
15554;DHT22;7878;44.632;10.942;2024-03-29T09:54:29;15.10;99.90
15554;DHT22;7878;44.632;10.942;2024-03-29T09:56:56;15.30;99.90
15554;DHT22;7878;44.632;10.942;2024-03-29T09:59:23;15.40;99.90
15554;DHT22;7878;44.632;10.942;2024-03-29T10:01:50;15.50;99.90
15554;DHT22;7878;44.632;10.942;2024-03-29T10:04:21;15.50;99.90
15554;DHT22;7878;44.632;10.942;2024-03-29T10:06:47;15.80;99.90
15554;DHT22;7878;44.632;10.942;2024-03-29T10:09:19;16.10;99.90
15554;DHT22;7878;44.632;10.942;2024-03-29T10:11:46;16.50;99.90
15554;DHT22;7878;44.632;10.942;2024-03-29T10:14:12;17.00;99.90
15554;DHT22;7878;44.632;10.942;2024-03-29T10:16:38;17.50;99.90
15554;DHT22;7878;44.632;10.942;2024-03-29T10:19:04;17.70;99.90
15554;DHT22;7878;44.632;10.942;2024-03-29T10:21:32;17.70;99.90
15554;DHT22;7878;44.632;10.942;2024-03-29T10:23:57;17.80;99.90
15554;DHT22;7878;44.632;10.942;2024-03-29T10:26:23;17.90;99.90
15554;DHT22;7878;44.632;10.942;2024-03-29T10:28:50;17.90;99.90
15554;DHT22;7878;44.632;10.942;2024-03-29T10:31:17;18.00;99.90
15554;DHT22;7878;44.632;10.942;2024-03-29T10:33:44;18.10;99.90
15554;DHT22;7878;44.632;10.942;2024-03-29T10:36:10;18.20;99.90
15554;DHT22;7878;44.632;10.942;2024-03-29T10:41:07;18.90;99.90
15554;DHT22;7878;44.632;10.942;2024-03-29T10:43:33;18.80;99.90
15554;DHT22;7878;44.632;10.942;2024-03-29T10:46:03;19.10;99.90
15554;DHT22;7878;44.632;10.942;2024-03-29T10:48:30;20.40;99.90
15554;DHT22;7878;44.632;10.942;2024-03-29T10:50:58;19.80;99.90
15554;DHT22;7878;44.632;10.942;2024-03-29T10:53:27;19.20;99.90
15554;DHT22;7878;44.632;10.942;2024-03-29T10:55:59;18.90;99.90
15554;DHT22;7878;44.632;10.942;2024-03-29T10:58:35;18.90;99.90
15554;DHT22;7878;44.632;10.942;2024-03-29T11:01:04;19.40;99.90
15554;DHT22;7878;44.632;10.942;2024-03-29T11:03:49;19.70;99.90
15554;DHT22;7878;44.632;10.942;2024-03-29T11:06:17;20.30;99.90
15554;DHT22;7878;44.632;10.942;2024-03-29T11:08:47;20.70;99.90
15554;DHT22;7878;44.632;10.942;2024-03-29T11:11:15;21.00;99.90
15554;DHT22;7878;44.632;10.942;2024-03-29T11:13:48;21.30;99.90
15554;DHT22;7878;44.632;10.942;2024-03-29T11:16:15;21.70;99.90
15554;DHT22;7878;44.632;10.942;2024-03-29T11:18:43;21.90;99.90
15554;DHT22;7878;44.632;10.942;2024-03-29T11:21:09;22.00;99.90
15554;DHT22;7878;44.632;10.942;2024-03-29T11:23:36;22.20;99.90
15554;DHT22;7878;44.632;10.942;2024-03-29T11:26:02;22.80;99.90
15554;DHT22;7878;44.632;10.942;2024-03-29T11:28:35;23.30;99.90
15554;DHT22;7878;44.632;10.942;2024-03-29T11:31:02;23.40;99.90
15554;DHT22;7878;44.632;10.942;2024-03-29T11:36:13;24.10;99.90
15554;DHT22;7878;44.632;10.942;2024-03-29T11:38:39;25.00;99.90
15554;DHT22;7878;44.632;10.942;2024-03-29T11:41:21;25.40;99.90
15554;DHT22;7878;44.632;10.942;2024-03-29T11:43:52;25.50;99.90
15554;DHT22;7878;44.632;10.942;2024-03-29T11:46:18;26.00;99.90
15554;DHT22;7878;44.632;10.942;2024-03-29T11:48:45;26.20;99.90
15554;DHT22;7878;44.632;10.942;2024-03-29T11:51:20;25.80;99.90
15554;DHT22;7878;44.632;10.942;2024-03-29T11:53:52;25.50;99.90
15554;DHT22;7878;44.632;10.942;2024-03-29T11:56:18;24.60;99.90
15554;DHT22;7878;44.632;10.942;2024-03-29T11:58:45;23.80;99.90
15554;DHT22;7878;44.632;10.942;2024-03-29T12:01:11;23.00;99.90
15554;DHT22;7878;44.632;10.942;2024-03-29T12:03:40;22.50;99.90
15554;DHT22;7878;44.632;10.942;2024-03-29T12:06:07;22.30;99.90
15554;DHT22;7878;44.632;10.942;2024-03-29T12:08:34;22.20;99.90
15554;DHT22;7878;44.632;10.942;2024-03-29T12:11:01;21.80;99.90
15554;DHT22;7878;44.632;10.942;2024-03-29T12:13:28;21.60;99.90
15554;DHT22;7878;44.632;10.942;2024-03-29T12:15:54;21.60;99.90
15554;DHT22;7878;44.632;10.942;2024-03-29T12:18:21;21.60;99.90
15554;DHT22;7878;44.632;10.942;2024-03-29T12:20:48;21.60;99.90
15554;DHT22;7878;44.632;10.942;2024-03-29T12:23:16;21.60;99.90
15554;DHT22;7878;44.632;10.942;2024-03-29T12:25:42;21.60;99.90
15554;DHT22;7878;44.632;10.942;2024-03-29T12:28:10;21.70;99.90
15554;DHT22;7878;44.632;10.942;2024-03-29T12:30:35;21.70;99.90
15554;DHT22;7878;44.632;10.942;2024-03-29T12:35:28;21.50;99.90
15554;DHT22;7878;44.632;10.942;2024-03-29T12:38:02;21.50;99.90
15554;DHT22;7878;44.632;10.942;2024-03-29T12:40:33;21.60;99.90
15554;DHT22;7878;44.632;10.942;2024-03-29T12:43:04;21.60;99.90
15554;DHT22;7878;44.632;10.942;2024-03-29T12:45:31;21.50;99.90
15554;DHT22;7878;44.632;10.942;2024-03-29T12:47:57;21.40;99.90
15554;DHT22;7878;44.632;10.942;2024-03-29T12:50:32;21.40;99.90
15554;DHT22;7878;44.632;10.942;2024-03-29T12:53:05;21.50;99.90
15554;DHT22;7878;44.632;10.942;2024-03-29T12:55:31;21.50;99.90
15554;DHT22;7878;44.632;10.942;2024-03-29T12:58:00;21.50;99.90
15554;DHT22;7878;44.632;10.942;2024-03-29T13:00:27;21.50;99.90
15554;DHT22;7878;44.632;10.942;2024-03-29T13:02:53;21.50;99.90
15554;DHT22;7878;44.632;10.942;2024-03-29T13:05:19;21.40;99.90
15554;DHT22;7878;44.632;10.942;2024-03-29T13:07:45;21.30;99.90
15554;DHT22;7878;44.632;10.942;2024-03-29T13:10:11;21.40;99.90
15554;DHT22;7878;44.632;10.942;2024-03-29T13:12:45;21.30;99.90
15554;DHT22;7878;44.632;10.942;2024-03-29T13:15:22;21.20;99.90
15554;DHT22;7878;44.632;10.942;2024-03-29T13:17:53;21.20;99.90
15554;DHT22;7878;44.632;10.942;2024-03-29T13:20:19;21.30;99.90
15554;DHT22;7878;44.632;10.942;2024-03-29T13:22:46;21.30;99.90
15554;DHT22;7878;44.632;10.942;2024-03-29T13:25:13;21.20;99.90
15554;DHT22;7878;44.632;10.942;2024-03-29T13:27:40;21.20;99.90
15554;DHT22;7878;44.632;10.942;2024-03-29T13:30:08;21.10;99.90
15554;DHT22;7878;44.632;10.942;2024-03-29T13:32:41;21.00;99.90
15554;DHT22;7878;44.632;10.942;2024-03-29T13:35:08;21.10;99.90
15554;DHT22;7878;44.632;10.942;2024-03-29T13:40:04;21.00;99.90
15554;DHT22;7878;44.632;10.942;2024-03-29T13:42:30;21.00;99.90
15554;DHT22;7878;44.632;10.942;2024-03-29T13:44:57;21.00;99.90
15554;DHT22;7878;44.632;10.942;2024-03-29T13:47:22;21.10;99.90
15554;DHT22;7878;44.632;10.942;2024-03-29T13:49:48;21.00;99.90
15554;DHT22;7878;44.632;10.942;2024-03-29T13:52:18;21.00;99.90
15554;DHT22;7878;44.632;10.942;2024-03-29T13:54:44;21.00;99.90
15554;DHT22;7878;44.632;10.942;2024-03-29T13:57:14;21.10;99.90
15554;DHT22;7878;44.632;10.942;2024-03-29T13:59:40;21.10;99.90
15554;DHT22;7878;44.632;10.942;2024-03-29T14:02:10;21.10;99.90
15554;DHT22;7878;44.632;10.942;2024-03-29T14:04:35;21.00;99.90
15554;DHT22;7878;44.632;10.942;2024-03-29T14:07:01;21.00;99.90
15554;DHT22;7878;44.632;10.942;2024-03-29T14:09:28;21.00;99.90
15554;DHT22;7878;44.632;10.942;2024-03-29T14:11:54;21.00;99.90
15554;DHT22;7878;44.632;10.942;2024-03-29T14:14:20;21.00;99.90
15554;DHT22;7878;44.632;10.942;2024-03-29T14:16:46;21.00;99.90
15554;DHT22;7878;44.632;10.942;2024-03-29T14:19:11;21.10;99.90
15554;DHT22;7878;44.632;10.942;2024-03-29T14:21:39;20.90;99.90
15554;DHT22;7878;44.632;10.942;2024-03-29T14:24:05;20.80;99.90
15554;DHT22;7878;44.632;10.942;2024-03-29T14:26:31;20.70;99.90
15554;DHT22;7878;44.632;10.942;2024-03-29T14:28:56;20.70;99.90
15554;DHT22;7878;44.632;10.942;2024-03-29T14:31:23;20.70;99.90
15554;DHT22;7878;44.632;10.942;2024-03-29T14:33:48;20.60;99.90
15554;DHT22;7878;44.632;10.942;2024-03-29T14:36:14;20.60;99.90
15554;DHT22;7878;44.632;10.942;2024-03-29T14:38:42;20.60;99.90
15554;DHT22;7878;44.632;10.942;2024-03-29T14:41:07;20.40;99.90
15554;DHT22;7878;44.632;10.942;2024-03-29T14:43:33;20.40;99.90
15554;DHT22;7878;44.632;10.942;2024-03-29T14:45:59;20.40;99.90
15554;DHT22;7878;44.632;10.942;2024-03-29T14:48:25;20.30;99.90
15554;DHT22;7878;44.632;10.942;2024-03-29T14:50:51;20.30;99.90
15554;DHT22;7878;44.632;10.942;2024-03-29T14:53:16;20.30;99.90
15554;DHT22;7878;44.632;10.942;2024-03-29T14:55:43;20.20;99.90
15554;DHT22;7878;44.632;10.942;2024-03-29T14:58:09;20.10;99.90
15554;DHT22;7878;44.632;10.942;2024-03-29T15:00:35;20.00;99.90
15554;DHT22;7878;44.632;10.942;2024-03-29T15:03:00;19.80;99.90
15554;DHT22;7878;44.632;10.942;2024-03-29T15:05:26;19.70;99.90
15554;DHT22;7878;44.632;10.942;2024-03-29T15:07:53;19.60;99.90
15554;DHT22;7878;44.632;10.942;2024-03-29T15:10:19;19.40;99.90
15554;DHT22;7878;44.632;10.942;2024-03-29T15:12:47;19.40;99.90
15554;DHT22;7878;44.632;10.942;2024-03-29T15:15:13;19.30;99.90
15554;DHT22;7878;44.632;10.942;2024-03-29T15:17:39;19.20;99.90
15554;DHT22;7878;44.632;10.942;2024-03-29T15:20:07;19.20;99.90
15554;DHT22;7878;44.632;10.942;2024-03-29T15:22:37;19.20;99.90
15554;DHT22;7878;44.632;10.942;2024-03-29T15:25:04;19.20;99.90
15554;DHT22;7878;44.632;10.942;2024-03-29T15:27:30;19.20;99.90
15554;DHT22;7878;44.632;10.942;2024-03-29T15:30:14;19.20;99.90
15554;DHT22;7878;44.632;10.942;2024-03-29T15:32:40;19.20;99.90
15554;DHT22;7878;44.632;10.942;2024-03-29T15:35:07;19.00;99.90
15554;DHT22;7878;44.632;10.942;2024-03-29T15:37:34;18.90;99.90
15554;DHT22;7878;44.632;10.942;2024-03-29T15:39:59;18.80;99.90